Impacts METAR Board
IDs:

KMEM - Memphis Intl, TN, US

Updated at: 1300 UTC 19 Aug 2019
Potential Impact None Slight Moderate High
Time 19/01Z 19/02Z 19/03Z 19/04Z 19/05Z 19/06Z 19/07Z 19/08Z 19/09Z 19/10Z 19/11Z 19/12Z 19/13Z
Temp81 80 80 80 79 77 76 76 75 75 76 76 78
Dewpt73 74 74 74 74 74 74 74 74 74 74 74 75
Altim29.93 29.96 29.98 30.00 29.98 29.97 29.96 29.96 29.97 29.98 30.00 30.03 30.04
VIS10 10 10 10 10 10 10 10 10 10 10 10 10
CIG250 170 150 210 -- -- -- -- -- -- -- -- --
CoverBKNBKNBKNBKNSCTFEWCLRCLRCLRCLRCLRFEWFEW
FltCatVFRVFRVFRVFRVFRVFRVFRVFRVFRVFRVFRVFRVFR
WX-----RA--------------------
WDir18022001001302002102000180120130170
WSpd9 4 0 7 4 5 5 3 0 3 3 4 5
WGst-- -- -- -- -- -- -- -- -- -- -- -- --
Raw hourly METARs
KMEM 190054Z 18009KT 10SM FEW060 SCT110 SCT200 BKN250 27/23 A2993 RMK AO2 LTG DSNT N SLP131 CB DSNT NW MOV E T02720228
KMEM 190154Z 22004KT 10SM FEW110 BKN170 BKN250 27/23 A2996 RMK AO2 LTG DSNT N SLP142 T02670233
KMEM 190254Z 00000KT 10SM -RA SCT110 BKN150 BKN250 27/23 A2998 RMK AO2 RAB48 SLP147 P0000 60000 T02670233 53018
KMEM 190354Z 10007KT 10SM FEW110 BKN210 27/23 A3000 RMK AO2 RAE10 SLP152 P0000 T02670233
KMEM 190454Z 13004KT 10SM FEW110 SCT250 26/23 A2998 RMK AO2 SLP148 T02610233
KMEM 190554Z 20005KT 10SM FEW230 25/23 A2997 RMK AO2 SLP144 60000 T02500233 10272 20250 403440239 58003
KMEM 190654Z 21005KT 10SM CLR 24/23 A2996 RMK AO2 SLP140 T02440233
KMEM 190754Z 20003KT 10SM CLR 24/23 A2996 RMK AO2 SLP141 T02440233
KMEM 190854Z 00000KT 10SM CLR 24/23 A2997 RMK AO2 SLP143 T02390233 55000
KMEM 190954Z 18003KT 10SM CLR 24/23 A2998 RMK AO2 SLP147 T02390233
KMEM 191054Z 12003KT 10SM CLR 24/23 A3000 RMK AO2 SLP156 T02440233
KMEM 191154Z 13004KT 10SM FEW035 24/23 A3003 RMK AO2 SLP164 T02440233 10250 20239 53020
KMEM 191254Z 17005KT 10SM FEW044 26/24 A3004 RMK AO2 SLP169 T02560239



Page loaded:  13:48 UTC  |   06:48 AM Pacific  |   07:48 AM Mountain  |   08:48 AM Central  |   09:48 AM Eastern

 

ADVISORIES

FORECASTS

FORECASTS

OBSERVATIONS

USER TOOLS

ABOUT US